Hillsboro, Kansas
Current Conditions -  °F | °C
As of 1:35 PM on Friday 28 Nov 2014 (Local Time) from KEWK Reporting Station
Clear Clear  
Wind Chill: 61°   Ceiling: Unl
Heat Index: 61°   Visibility: 10mi
Dew Point: 32°   Wind: 20mph
Humidity: 34%   Direction: 200°SSW
Pressure: 29.85"   Gusts: 26mph
Location:  38.35°N, 97.2°W
Report Text: KEWK 281935Z AUTO 20017G23KT 10SM CLR 16/00 A2985 RMK AO1
Loading
Personal Weather Stations






























Interactive Weather Map New forecast layout! Learn more

10-Day Weather Forecast

Advertisements
Track Severe Weather on mobile